sensor_id;sensor_type;location;lat;lon;timestamp;P1;durP1;ratioP1;P2;durP2;ratioP2
16737;SDS011;17906;47.684;10.806;2024-01-27T00:00:21;5.90;;;2.30;;
16737;SDS011;17906;47.684;10.806;2024-01-27T00:02:48;3.00;;;2.10;;
16737;SDS011;17906;47.684;10.806;2024-01-27T00:05:15;3.13;;;1.90;;
16737;SDS011;17906;47.684;10.806;2024-01-27T00:07:43;5.60;;;1.40;;
16737;SDS011;17906;47.684;10.806;2024-01-27T00:10:09;2.53;;;1.33;;
16737;SDS011;17906;47.684;10.806;2024-01-27T00:12:36;5.13;;;1.77;;
16737;SDS011;17906;47.684;10.806;2024-01-27T00:15:03;3.17;;;1.23;;
16737;SDS011;17906;47.684;10.806;2024-01-27T00:17:30;6.17;;;1.50;;
16737;SDS011;17906;47.684;10.806;2024-01-27T00:19:57;4.40;;;1.37;;
16737;SDS011;17906;47.684;10.806;2024-01-27T00:22:23;4.27;;;1.40;;
16737;SDS011;17906;47.684;10.806;2024-01-27T00:24:51;7.60;;;1.60;;
16737;SDS011;17906;47.684;10.806;2024-01-27T00:27:18;4.90;;;1.40;;
16737;SDS011;17906;47.684;10.806;2024-01-27T00:29:44;3.90;;;1.50;;
16737;SDS011;17906;47.684;10.806;2024-01-27T00:32:11;5.10;;;1.83;;
16737;SDS011;17906;47.684;10.806;2024-01-27T00:34:38;5.00;;;1.97;;
16737;SDS011;17906;47.684;10.806;2024-01-27T00:37:04;5.13;;;1.60;;
16737;SDS011;17906;47.684;10.806;2024-01-27T00:39:31;3.37;;;1.60;;
16737;SDS011;17906;47.684;10.806;2024-01-27T00:42:00;5.17;;;2.00;;
16737;SDS011;17906;47.684;10.806;2024-01-27T00:44:26;8.13;;;2.57;;
16737;SDS011;17906;47.684;10.806;2024-01-27T00:46:53;5.03;;;1.90;;
16737;SDS011;17906;47.684;10.806;2024-01-27T00:49:20;5.57;;;1.80;;
16737;SDS011;17906;47.684;10.806;2024-01-27T00:51:46;4.93;;;2.20;;
16737;SDS011;17906;47.684;10.806;2024-01-27T00:54:13;4.13;;;1.90;;
16737;SDS011;17906;47.684;10.806;2024-01-27T00:56:40;4.97;;;1.80;;
16737;SDS011;17906;47.684;10.806;2024-01-27T00:59:08;7.00;;;1.90;;
16737;SDS011;17906;47.684;10.806;2024-01-27T01:01:34;3.40;;;1.67;;
16737;SDS011;17906;47.684;10.806;2024-01-27T01:04:01;4.80;;;1.83;;
16737;SDS011;17906;47.684;10.806;2024-01-27T01:06:28;5.70;;;1.90;;
16737;SDS011;17906;47.684;10.806;2024-01-27T01:08:54;3.47;;;1.60;;
16737;SDS011;17906;47.684;10.806;2024-01-27T01:11:21;5.30;;;1.83;;
16737;SDS011;17906;47.684;10.806;2024-01-27T01:13:48;6.60;;;2.20;;
16737;SDS011;17906;47.684;10.806;2024-01-27T01:16:16;3.17;;;1.60;;
16737;SDS011;17906;47.684;10.806;2024-01-27T01:18:42;5.67;;;1.80;;
16737;SDS011;17906;47.684;10.806;2024-01-27T01:21:09;4.60;;;1.50;;
16737;SDS011;17906;47.684;10.806;2024-01-27T01:23:35;4.93;;;1.80;;
16737;SDS011;17906;47.684;10.806;2024-01-27T01:26:02;3.53;;;1.70;;
16737;SDS011;17906;47.684;10.806;2024-01-27T01:28:29;2.13;;;1.50;;
16737;SDS011;17906;47.684;10.806;2024-01-27T01:30:57;6.67;;;1.80;;
16737;SDS011;17906;47.684;10.806;2024-01-27T01:33:25;5.93;;;2.00;;
16737;SDS011;17906;47.684;10.806;2024-01-27T01:35:52;3.53;;;1.70;;
16737;SDS011;17906;47.684;10.806;2024-01-27T01:38:18;5.00;;;1.63;;
16737;SDS011;17906;47.684;10.806;2024-01-27T01:40:45;8.43;;;1.90;;
16737;SDS011;17906;47.684;10.806;2024-01-27T01:43:11;4.37;;;1.80;;
16737;SDS011;17906;47.684;10.806;2024-01-27T01:45:38;6.67;;;1.70;;
16737;SDS011;17906;47.684;10.806;2024-01-27T01:48:05;2.83;;;1.73;;
16737;SDS011;17906;47.684;10.806;2024-01-27T01:50:35;3.73;;;2.07;;
16737;SDS011;17906;47.684;10.806;2024-01-27T01:53:02;6.73;;;2.50;;
16737;SDS011;17906;47.684;10.806;2024-01-27T01:55:29;4.27;;;1.80;;
16737;SDS011;17906;47.684;10.806;2024-01-27T01:57:56;11.03;;;2.37;;
16737;SDS011;17906;47.684;10.806;2024-01-27T02:00:22;4.57;;;2.00;;
16737;SDS011;17906;47.684;10.806;2024-01-27T02:02:49;6.00;;;2.77;;
16737;SDS011;17906;47.684;10.806;2024-01-27T02:05:16;6.07;;;2.67;;
16737;SDS011;17906;47.684;10.806;2024-01-27T02:07:44;4.83;;;2.83;;
16737;SDS011;17906;47.684;10.806;2024-01-27T02:10:12;6.87;;;3.10;;
16737;SDS011;17906;47.684;10.806;2024-01-27T02:12:40;10.07;;;4.80;;
16737;SDS011;17906;47.684;10.806;2024-01-27T02:15:09;9.87;;;3.17;;
16737;SDS011;17906;47.684;10.806;2024-01-27T02:17:36;4.07;;;2.60;;
16737;SDS011;17906;47.684;10.806;2024-01-27T02:20:03;4.17;;;2.77;;
16737;SDS011;17906;47.684;10.806;2024-01-27T02:22:31;6.13;;;2.97;;
16737;SDS011;17906;47.684;10.806;2024-01-27T02:24:59;8.53;;;3.27;;
16737;SDS011;17906;47.684;10.806;2024-01-27T02:27:26;8.60;;;2.90;;
16737;SDS011;17906;47.684;10.806;2024-01-27T02:29:53;8.90;;;2.90;;
16737;SDS011;17906;47.684;10.806;2024-01-27T02:32:19;8.83;;;2.93;;
16737;SDS011;17906;47.684;10.806;2024-01-27T02:34:46;7.37;;;2.60;;
16737;SDS011;17906;47.684;10.806;2024-01-27T02:37:13;7.80;;;2.97;;
16737;SDS011;17906;47.684;10.806;2024-01-27T02:39:40;7.33;;;2.57;;
16737;SDS011;17906;47.684;10.806;2024-01-27T02:42:08;7.17;;;2.60;;
16737;SDS011;17906;47.684;10.806;2024-01-27T02:44:34;8.07;;;2.50;;
16737;SDS011;17906;47.684;10.806;2024-01-27T02:47:01;7.07;;;2.93;;
16737;SDS011;17906;47.684;10.806;2024-01-27T02:49:28;6.33;;;2.80;;
16737;SDS011;17906;47.684;10.806;2024-01-27T02:51:54;8.50;;;3.33;;
16737;SDS011;17906;47.684;10.806;2024-01-27T02:54:21;7.30;;;2.97;;
16737;SDS011;17906;47.684;10.806;2024-01-27T02:56:48;7.43;;;3.73;;
16737;SDS011;17906;47.684;10.806;2024-01-27T02:59:16;6.73;;;3.20;;
16737;SDS011;17906;47.684;10.806;2024-01-27T03:01:42;6.07;;;2.50;;
16737;SDS011;17906;47.684;10.806;2024-01-27T03:04:09;5.73;;;3.27;;
16737;SDS011;17906;47.684;10.806;2024-01-27T03:06:35;7.07;;;3.20;;
16737;SDS011;17906;47.684;10.806;2024-01-27T03:09:02;4.70;;;2.90;;
16737;SDS011;17906;47.684;10.806;2024-01-27T03:11:29;5.47;;;2.90;;
16737;SDS011;17906;47.684;10.806;2024-01-27T03:13:56;7.50;;;3.60;;
16737;SDS011;17906;47.684;10.806;2024-01-27T03:16:24;7.40;;;3.50;;
16737;SDS011;17906;47.684;10.806;2024-01-27T03:18:50;4.57;;;2.50;;
16737;SDS011;17906;47.684;10.806;2024-01-27T03:21:17;5.93;;;2.93;;
16737;SDS011;17906;47.684;10.806;2024-01-27T03:23:44;8.03;;;3.17;;
16737;SDS011;17906;47.684;10.806;2024-01-27T03:26:10;6.00;;;3.10;;
16737;SDS011;17906;47.684;10.806;2024-01-27T03:28:37;6.73;;;3.00;;
16737;SDS011;17906;47.684;10.806;2024-01-27T03:31:03;5.53;;;2.90;;
16737;SDS011;17906;47.684;10.806;2024-01-27T03:33:31;7.47;;;2.97;;
16737;SDS011;17906;47.684;10.806;2024-01-27T03:35:58;6.67;;;3.10;;
16737;SDS011;17906;47.684;10.806;2024-01-27T03:38:25;6.27;;;2.80;;
16737;SDS011;17906;47.684;10.806;2024-01-27T03:40:52;6.47;;;3.30;;
16737;SDS011;17906;47.684;10.806;2024-01-27T03:43:19;6.20;;;2.77;;
16737;SDS011;17906;47.684;10.806;2024-01-27T03:45:45;6.20;;;3.20;;
16737;SDS011;17906;47.684;10.806;2024-01-27T03:48:12;5.87;;;2.70;;
16737;SDS011;17906;47.684;10.806;2024-01-27T03:50:40;5.90;;;2.67;;
16737;SDS011;17906;47.684;10.806;2024-01-27T03:53:07;5.60;;;2.67;;
16737;SDS011;17906;47.684;10.806;2024-01-27T03:55:33;5.27;;;2.63;;
16737;SDS011;17906;47.684;10.806;2024-01-27T03:58:00;5.43;;;2.40;;
16737;SDS011;17906;47.684;10.806;2024-01-27T04:00:27;5.03;;;2.50;;
16737;SDS011;17906;47.684;10.806;2024-01-27T04:02:57;6.07;;;2.70;;
16737;SDS011;17906;47.684;10.806;2024-01-27T04:05:24;3.63;;;2.30;;
16737;SDS011;17906;47.684;10.806;2024-01-27T04:07:51;3.50;;;2.53;;
16737;SDS011;17906;47.684;10.806;2024-01-27T04:10:18;6.37;;;3.00;;
16737;SDS011;17906;47.684;10.806;2024-01-27T04:12:45;4.63;;;2.57;;
16737;SDS011;17906;47.684;10.806;2024-01-27T04:15:12;5.73;;;2.37;;
16737;SDS011;17906;47.684;10.806;2024-01-27T04:17:39;5.10;;;2.60;;
16737;SDS011;17906;47.684;10.806;2024-01-27T04:20:07;6.27;;;2.73;;
16737;SDS011;17906;47.684;10.806;2024-01-27T04:22:35;4.80;;;2.40;;
16737;SDS011;17906;47.684;10.806;2024-01-27T04:25:03;8.17;;;2.77;;
16737;SDS011;17906;47.684;10.806;2024-01-27T04:27:31;6.33;;;3.30;;
16737;SDS011;17906;47.684;10.806;2024-01-27T04:30:03;5.97;;;3.30;;
16737;SDS011;17906;47.684;10.806;2024-01-27T04:32:31;10.43;;;3.57;;
16737;SDS011;17906;47.684;10.806;2024-01-27T04:34:58;5.67;;;3.20;;
16737;SDS011;17906;47.684;10.806;2024-01-27T04:37:24;3.97;;;2.90;;
16737;SDS011;17906;47.684;10.806;2024-01-27T04:39:51;5.70;;;3.50;;
16737;SDS011;17906;47.684;10.806;2024-01-27T04:42:19;5.17;;;3.30;;
16737;SDS011;17906;47.684;10.806;2024-01-27T04:44:46;5.93;;;3.23;;
16737;SDS011;17906;47.684;10.806;2024-01-27T04:47:12;7.00;;;3.40;;
16737;SDS011;17906;47.684;10.806;2024-01-27T04:49:39;7.70;;;3.23;;
16737;SDS011;17906;47.684;10.806;2024-01-27T04:52:06;5.63;;;3.03;;
16737;SDS011;17906;47.684;10.806;2024-01-27T04:54:32;6.60;;;3.30;;
16737;SDS011;17906;47.684;10.806;2024-01-27T04:56:59;5.70;;;3.30;;
16737;SDS011;17906;47.684;10.806;2024-01-27T04:59:27;5.07;;;2.77;;
16737;SDS011;17906;47.684;10.806;2024-01-27T05:01:54;5.83;;;2.80;;
16737;SDS011;17906;47.684;10.806;2024-01-27T05:04:20;6.07;;;3.17;;
16737;SDS011;17906;47.684;10.806;2024-01-27T05:06:51;5.20;;;2.97;;
16737;SDS011;17906;47.684;10.806;2024-01-27T05:09:18;5.40;;;3.10;;
16737;SDS011;17906;47.684;10.806;2024-01-27T05:11:44;5.90;;;3.23;;
16737;SDS011;17906;47.684;10.806;2024-01-27T05:14:13;6.37;;;3.43;;
16737;SDS011;17906;47.684;10.806;2024-01-27T05:16:41;11.30;;;3.73;;
16737;SDS011;17906;47.684;10.806;2024-01-27T05:19:08;6.07;;;3.33;;
16737;SDS011;17906;47.684;10.806;2024-01-27T05:21:34;7.77;;;3.60;;
16737;SDS011;17906;47.684;10.806;2024-01-27T05:24:01;7.47;;;4.07;;
16737;SDS011;17906;47.684;10.806;2024-01-27T05:26:28;9.40;;;4.70;;
16737;SDS011;17906;47.684;10.806;2024-01-27T05:28:54;7.90;;;4.47;;
16737;SDS011;17906;47.684;10.806;2024-01-27T05:31:21;9.87;;;4.33;;
16737;SDS011;17906;47.684;10.806;2024-01-27T05:33:49;9.73;;;4.07;;
16737;SDS011;17906;47.684;10.806;2024-01-27T05:36:16;7.17;;;4.27;;
16737;SDS011;17906;47.684;10.806;2024-01-27T05:38:42;14.27;;;5.37;;
16737;SDS011;17906;47.684;10.806;2024-01-27T05:41:09;7.63;;;4.83;;
16737;SDS011;17906;47.684;10.806;2024-01-27T05:43:36;9.00;;;3.27;;
16737;SDS011;17906;47.684;10.806;2024-01-27T05:46:03;5.33;;;3.00;;
16737;SDS011;17906;47.684;10.806;2024-01-27T05:48:30;10.67;;;3.30;;
16737;SDS011;17906;47.684;10.806;2024-01-27T05:51:00;5.57;;;3.07;;
16737;SDS011;17906;47.684;10.806;2024-01-27T05:53:27;8.27;;;4.10;;
16737;SDS011;17906;47.684;10.806;2024-01-27T05:55:55;10.57;;;5.40;;
16737;SDS011;17906;47.684;10.806;2024-01-27T05:58:22;9.63;;;4.50;;
16737;SDS011;17906;47.684;10.806;2024-01-27T06:00:48;8.03;;;4.80;;
16737;SDS011;17906;47.684;10.806;2024-01-27T06:03:15;7.37;;;3.80;;
16737;SDS011;17906;47.684;10.806;2024-01-27T06:05:42;10.53;;;4.87;;
16737;SDS011;17906;47.684;10.806;2024-01-27T06:08:10;12.40;;;5.37;;
16737;SDS011;17906;47.684;10.806;2024-01-27T06:10:37;8.17;;;4.43;;
16737;SDS011;17906;47.684;10.806;2024-01-27T06:13:03;9.17;;;4.40;;
16737;SDS011;17906;47.684;10.806;2024-01-27T06:15:30;9.03;;;4.17;;
16737;SDS011;17906;47.684;10.806;2024-01-27T06:17:57;7.50;;;4.00;;
16737;SDS011;17906;47.684;10.806;2024-01-27T06:20:24;13.80;;;3.60;;
16737;SDS011;17906;47.684;10.806;2024-01-27T06:22:50;7.30;;;4.03;;
16737;SDS011;17906;47.684;10.806;2024-01-27T06:25:19;10.90;;;4.00;;
16737;SDS011;17906;47.684;10.806;2024-01-27T06:27:46;10.47;;;4.40;;
16737;SDS011;17906;47.684;10.806;2024-01-27T06:30:13;7.67;;;3.73;;
16737;SDS011;17906;47.684;10.806;2024-01-27T06:32:40;6.67;;;3.73;;
16737;SDS011;17906;47.684;10.806;2024-01-27T06:35:07;6.07;;;3.50;;
16737;SDS011;17906;47.684;10.806;2024-01-27T06:37:34;7.37;;;4.03;;
16737;SDS011;17906;47.684;10.806;2024-01-27T06:40:01;7.47;;;3.70;;
16737;SDS011;17906;47.684;10.806;2024-01-27T06:42:29;5.50;;;3.63;;
16737;SDS011;17906;47.684;10.806;2024-01-27T06:44:56;6.30;;;3.73;;
16737;SDS011;17906;47.684;10.806;2024-01-27T06:47:23;10.67;;;3.30;;
16737;SDS011;17906;47.684;10.806;2024-01-27T06:49:49;8.83;;;3.40;;
16737;SDS011;17906;47.684;10.806;2024-01-27T06:52:16;6.70;;;3.80;;
16737;SDS011;17906;47.684;10.806;2024-01-27T06:54:43;6.17;;;3.50;;
16737;SDS011;17906;47.684;10.806;2024-01-27T06:57:17;8.50;;;3.10;;
16737;SDS011;17906;47.684;10.806;2024-01-27T06:59:46;9.30;;;4.50;;
16737;SDS011;17906;47.684;10.806;2024-01-27T07:02:17;8.67;;;3.97;;
16737;SDS011;17906;47.684;10.806;2024-01-27T07:04:44;10.10;;;4.40;;
16737;SDS011;17906;47.684;10.806;2024-01-27T07:07:10;9.13;;;3.90;;
16737;SDS011;17906;47.684;10.806;2024-01-27T07:09:37;8.63;;;3.30;;
16737;SDS011;17906;47.684;10.806;2024-01-27T07:12:04;9.87;;;3.93;;
16737;SDS011;17906;47.684;10.806;2024-01-27T07:14:31;5.93;;;3.47;;
16737;SDS011;17906;47.684;10.806;2024-01-27T07:16:59;14.87;;;4.23;;
16737;SDS011;17906;47.684;10.806;2024-01-27T07:19:25;6.70;;;3.47;;
16737;SDS011;17906;47.684;10.806;2024-01-27T07:21:53;6.80;;;3.53;;
16737;SDS011;17906;47.684;10.806;2024-01-27T07:24:19;7.23;;;3.43;;
16737;SDS011;17906;47.684;10.806;2024-01-27T07:26:46;8.40;;;4.03;;
16737;SDS011;17906;47.684;10.806;2024-01-27T07:29:13;7.17;;;4.27;;
16737;SDS011;17906;47.684;10.806;2024-01-27T07:31:39;7.67;;;3.97;;
16737;SDS011;17906;47.684;10.806;2024-01-27T07:34:07;7.30;;;4.03;;
16737;SDS011;17906;47.684;10.806;2024-01-27T07:36:34;11.30;;;4.40;;
16737;SDS011;17906;47.684;10.806;2024-01-27T07:39:01;9.40;;;3.90;;
16737;SDS011;17906;47.684;10.806;2024-01-27T07:41:29;7.97;;;4.17;;
16737;SDS011;17906;47.684;10.806;2024-01-27T07:43:56;8.43;;;4.20;;
16737;SDS011;17906;47.684;10.806;2024-01-27T07:46:23;9.40;;;4.13;;
16737;SDS011;17906;47.684;10.806;2024-01-27T07:48:49;6.30;;;3.90;;
16737;SDS011;17906;47.684;10.806;2024-01-27T07:51:17;7.83;;;4.27;;
16737;SDS011;17906;47.684;10.806;2024-01-27T07:53:44;6.03;;;3.70;;
16737;SDS011;17906;47.684;10.806;2024-01-27T07:56:10;7.57;;;4.40;;
16737;SDS011;17906;47.684;10.806;2024-01-27T07:58:37;8.67;;;4.07;;
16737;SDS011;17906;47.684;10.806;2024-01-27T08:01:04;9.73;;;4.93;;
16737;SDS011;17906;47.684;10.806;2024-01-27T08:03:31;14.00;;;6.07;;
16737;SDS011;17906;47.684;10.806;2024-01-27T08:05:57;17.93;;;6.30;;
16737;SDS011;17906;47.684;10.806;2024-01-27T08:08:25;12.77;;;6.33;;
16737;SDS011;17906;47.684;10.806;2024-01-27T08:10:52;13.97;;;6.33;;
16737;SDS011;17906;47.684;10.806;2024-01-27T08:13:18;10.57;;;6.17;;
16737;SDS011;17906;47.684;10.806;2024-01-27T08:15:45;13.97;;;5.80;;
16737;SDS011;17906;47.684;10.806;2024-01-27T08:18:11;11.10;;;6.53;;
16737;SDS011;17906;47.684;10.806;2024-01-27T08:20:38;13.90;;;6.47;;
16737;SDS011;17906;47.684;10.806;2024-01-27T08:23:05;13.23;;;6.67;;
16737;SDS011;17906;47.684;10.806;2024-01-27T08:25:33;20.03;;;8.20;;
16737;SDS011;17906;47.684;10.806;2024-01-27T08:28:00;12.20;;;6.60;;
16737;SDS011;17906;47.684;10.806;2024-01-27T08:30:26;20.73;;;10.00;;
16737;SDS011;17906;47.684;10.806;2024-01-27T08:32:53;14.53;;;6.57;;
16737;SDS011;17906;47.684;10.806;2024-01-27T08:35:20;16.83;;;6.37;;
16737;SDS011;17906;47.684;10.806;2024-01-27T08:37:47;11.80;;;6.27;;
16737;SDS011;17906;47.684;10.806;2024-01-27T08:40:13;11.90;;;6.53;;
16737;SDS011;17906;47.684;10.806;2024-01-27T08:42:43;13.73;;;6.83;;
16737;SDS011;17906;47.684;10.806;2024-01-27T08:45:10;18.27;;;7.53;;
16737;SDS011;17906;47.684;10.806;2024-01-27T08:47:37;17.00;;;7.33;;
16737;SDS011;17906;47.684;10.806;2024-01-27T08:50:04;20.80;;;8.63;;
16737;SDS011;17906;47.684;10.806;2024-01-27T08:52:31;22.10;;;9.10;;
16737;SDS011;17906;47.684;10.806;2024-01-27T08:54:57;16.33;;;7.93;;
16737;SDS011;17906;47.684;10.806;2024-01-27T08:57:24;16.23;;;7.53;;
16737;SDS011;17906;47.684;10.806;2024-01-27T08:59:52;11.97;;;6.33;;
16737;SDS011;17906;47.684;10.806;2024-01-27T09:02:19;11.07;;;5.67;;
16737;SDS011;17906;47.684;10.806;2024-01-27T09:04:45;10.43;;;5.53;;
16737;SDS011;17906;47.684;10.806;2024-01-27T09:07:12;8.47;;;5.20;;
16737;SDS011;17906;47.684;10.806;2024-01-27T09:09:39;11.33;;;5.30;;
16737;SDS011;17906;47.684;10.806;2024-01-27T09:12:05;14.03;;;6.27;;
16737;SDS011;17906;47.684;10.806;2024-01-27T09:14:32;13.53;;;4.80;;
16737;SDS011;17906;47.684;10.806;2024-01-27T09:17:01;10.07;;;5.00;;
16737;SDS011;17906;47.684;10.806;2024-01-27T09:19:28;10.83;;;4.90;;
16737;SDS011;17906;47.684;10.806;2024-01-27T09:21:54;10.93;;;5.27;;
16737;SDS011;17906;47.684;10.806;2024-01-27T09:24:21;8.87;;;5.20;;
16737;SDS011;17906;47.684;10.806;2024-01-27T09:26:47;12.70;;;5.33;;
16737;SDS011;17906;47.684;10.806;2024-01-27T09:29:14;11.17;;;5.13;;
16737;SDS011;17906;47.684;10.806;2024-01-27T09:31:41;11.47;;;5.00;;
16737;SDS011;17906;47.684;10.806;2024-01-27T09:34:09;6.57;;;4.50;;
16737;SDS011;17906;47.684;10.806;2024-01-27T09:36:35;8.87;;;4.83;;
16737;SDS011;17906;47.684;10.806;2024-01-27T09:39:02;10.70;;;5.23;;
16737;SDS011;17906;47.684;10.806;2024-01-27T09:41:29;9.33;;;4.60;;
16737;SDS011;17906;47.684;10.806;2024-01-27T09:43:58;15.30;;;5.87;;
16737;SDS011;17906;47.684;10.806;2024-01-27T09:46:28;36.27;;;15.47;;
16737;SDS011;17906;47.684;10.806;2024-01-27T09:48:55;17.03;;;8.93;;
16737;SDS011;17906;47.684;10.806;2024-01-27T09:51:24;36.70;;;20.70;;
16737;SDS011;17906;47.684;10.806;2024-01-27T09:53:51;20.47;;;10.67;;
16737;SDS011;17906;47.684;10.806;2024-01-27T09:56:18;24.23;;;12.30;;
16737;SDS011;17906;47.684;10.806;2024-01-27T09:58:45;20.17;;;10.70;;
16737;SDS011;17906;47.684;10.806;2024-01-27T10:01:14;12.03;;;5.97;;
16737;SDS011;17906;47.684;10.806;2024-01-27T10:03:43;12.27;;;6.03;;
16737;SDS011;17906;47.684;10.806;2024-01-27T10:06:10;17.70;;;10.13;;
16737;SDS011;17906;47.684;10.806;2024-01-27T10:08:38;20.53;;;9.97;;
16737;SDS011;17906;47.684;10.806;2024-01-27T10:11:06;11.53;;;6.73;;
16737;SDS011;17906;47.684;10.806;2024-01-27T10:13:33;13.47;;;7.47;;
16737;SDS011;17906;47.684;10.806;2024-01-27T10:16:00;12.87;;;6.40;;
16737;SDS011;17906;47.684;10.806;2024-01-27T10:18:28;13.33;;;5.97;;
16737;SDS011;17906;47.684;10.806;2024-01-27T10:20:54;11.83;;;6.90;;
16737;SDS011;17906;47.684;10.806;2024-01-27T10:23:21;12.17;;;6.67;;
16737;SDS011;17906;47.684;10.806;2024-01-27T10:25:49;13.17;;;6.93;;
16737;SDS011;17906;47.684;10.806;2024-01-27T10:28:17;10.40;;;6.00;;
16737;SDS011;17906;47.684;10.806;2024-01-27T10:30:43;13.30;;;6.70;;
16737;SDS011;17906;47.684;10.806;2024-01-27T10:33:11;17.00;;;8.27;;
16737;SDS011;17906;47.684;10.806;2024-01-27T10:35:39;12.57;;;6.50;;
16737;SDS011;17906;47.684;10.806;2024-01-27T10:38:06;13.90;;;6.93;;
16737;SDS011;17906;47.684;10.806;2024-01-27T10:40:32;18.07;;;7.50;;
16737;SDS011;17906;47.684;10.806;2024-01-27T10:43:13;32.73;;;14.50;;
16737;SDS011;17906;47.684;10.806;2024-01-27T10:45:43;16.07;;;9.00;;
16737;SDS011;17906;47.684;10.806;2024-01-27T10:48:10;13.63;;;6.90;;
16737;SDS011;17906;47.684;10.806;2024-01-27T10:50:37;15.87;;;6.73;;
16737;SDS011;17906;47.684;10.806;2024-01-27T10:53:06;12.80;;;7.60;;
16737;SDS011;17906;47.684;10.806;2024-01-27T10:55:35;10.10;;;6.10;;
16737;SDS011;17906;47.684;10.806;2024-01-27T10:58:05;14.43;;;9.53;;
16737;SDS011;17906;47.684;10.806;2024-01-27T11:00:32;13.03;;;6.10;;
16737;SDS011;17906;47.684;10.806;2024-01-27T11:03:01;15.53;;;5.93;;
16737;SDS011;17906;47.684;10.806;2024-01-27T11:05:29;10.93;;;6.10;;
16737;SDS011;17906;47.684;10.806;2024-01-27T11:07:57;13.20;;;6.43;;
16737;SDS011;17906;47.684;10.806;2024-01-27T11:10:25;11.73;;;5.87;;
16737;SDS011;17906;47.684;10.806;2024-01-27T11:12:56;9.73;;;5.63;;
16737;SDS011;17906;47.684;10.806;2024-01-27T11:15:24;9.07;;;5.27;;
16737;SDS011;17906;47.684;10.806;2024-01-27T11:17:51;14.27;;;6.53;;
16737;SDS011;17906;47.684;10.806;2024-01-27T11:20:17;11.77;;;5.47;;
16737;SDS011;17906;47.684;10.806;2024-01-27T11:22:44;8.40;;;4.93;;
16737;SDS011;17906;47.684;10.806;2024-01-27T11:25:14;13.57;;;5.30;;
16737;SDS011;17906;47.684;10.806;2024-01-27T11:27:43;13.97;;;7.17;;
16737;SDS011;17906;47.684;10.806;2024-01-27T11:32:54;23.30;;;12.17;;
16737;SDS011;17906;47.684;10.806;2024-01-27T11:35:22;14.37;;;7.80;;
16737;SDS011;17906;47.684;10.806;2024-01-27T11:37:49;13.50;;;6.03;;
16737;SDS011;17906;47.684;10.806;2024-01-27T11:40:15;15.50;;;7.90;;
16737;SDS011;17906;47.684;10.806;2024-01-27T11:42:42;10.10;;;5.00;;
16737;SDS011;17906;47.684;10.806;2024-01-27T11:45:09;8.93;;;4.77;;
16737;SDS011;17906;47.684;10.806;2024-01-27T11:47:37;8.23;;;4.97;;
16737;SDS011;17906;47.684;10.806;2024-01-27T11:50:04;9.20;;;4.50;;
16737;SDS011;17906;47.684;10.806;2024-01-27T11:52:31;21.67;;;10.03;;
16737;SDS011;17906;47.684;10.806;2024-01-27T11:54:57;12.57;;;5.17;;
16737;SDS011;17906;47.684;10.806;2024-01-27T11:57:25;11.70;;;5.20;;
16737;SDS011;17906;47.684;10.806;2024-01-27T11:59:52;12.30;;;5.33;;
16737;SDS011;17906;47.684;10.806;2024-01-27T12:02:19;7.97;;;4.50;;
16737;SDS011;17906;47.684;10.806;2024-01-27T12:04:48;9.93;;;4.80;;
16737;SDS011;17906;47.684;10.806;2024-01-27T12:07:16;8.90;;;5.33;;
16737;SDS011;17906;47.684;10.806;2024-01-27T12:09:43;9.83;;;5.47;;
16737;SDS011;17906;47.684;10.806;2024-01-27T12:12:10;14.67;;;7.23;;
16737;SDS011;17906;47.684;10.806;2024-01-27T12:14:39;18.07;;;7.03;;
16737;SDS011;17906;47.684;10.806;2024-01-27T12:17:08;17.63;;;7.30;;
16737;SDS011;17906;47.684;10.806;2024-01-27T12:19:35;14.50;;;5.63;;
16737;SDS011;17906;47.684;10.806;2024-01-27T12:22:03;24.77;;;9.37;;
16737;SDS011;17906;47.684;10.806;2024-01-27T12:24:30;12.53;;;6.93;;
16737;SDS011;17906;47.684;10.806;2024-01-27T12:26:58;12.70;;;5.23;;
16737;SDS011;17906;47.684;10.806;2024-01-27T12:29:25;11.37;;;5.63;;
16737;SDS011;17906;47.684;10.806;2024-01-27T12:31:52;10.60;;;5.33;;
16737;SDS011;17906;47.684;10.806;2024-01-27T12:34:20;11.70;;;5.97;;
16737;SDS011;17906;47.684;10.806;2024-01-27T12:36:47;11.27;;;4.90;;
16737;SDS011;17906;47.684;10.806;2024-01-27T12:39:15;13.20;;;6.43;;
16737;SDS011;17906;47.684;10.806;2024-01-27T12:41:42;10.03;;;4.83;;
16737;SDS011;17906;47.684;10.806;2024-01-27T12:44:09;8.03;;;4.43;;
16737;SDS011;17906;47.684;10.806;2024-01-27T12:46:36;11.20;;;4.20;;
16737;SDS011;17906;47.684;10.806;2024-01-27T12:49:03;14.10;;;5.60;;
16737;SDS011;17906;47.684;10.806;2024-01-27T12:51:30;11.73;;;5.73;;
16737;SDS011;17906;47.684;10.806;2024-01-27T12:53:56;11.70;;;4.40;;
16737;SDS011;17906;47.684;10.806;2024-01-27T12:56:25;10.23;;;5.23;;
16737;SDS011;17906;47.684;10.806;2024-01-27T12:58:51;10.73;;;4.80;;
16737;SDS011;17906;47.684;10.806;2024-01-27T13:01:18;10.93;;;4.63;;
16737;SDS011;17906;47.684;10.806;2024-01-27T13:03:45;11.40;;;5.20;;
16737;SDS011;17906;47.684;10.806;2024-01-27T13:06:11;11.33;;;5.80;;
16737;SDS011;17906;47.684;10.806;2024-01-27T13:08:39;9.93;;;5.10;;
16737;SDS011;17906;47.684;10.806;2024-01-27T13:11:06;12.03;;;5.00;;
16737;SDS011;17906;47.684;10.806;2024-01-27T13:13:34;10.57;;;4.73;;
16737;SDS011;17906;47.684;10.806;2024-01-27T13:16:01;10.17;;;4.77;;
16737;SDS011;17906;47.684;10.806;2024-01-27T13:18:27;13.07;;;5.00;;
16737;SDS011;17906;47.684;10.806;2024-01-27T13:20:54;11.37;;;5.40;;
16737;SDS011;17906;47.684;10.806;2024-01-27T13:23:21;7.67;;;4.70;;
16737;SDS011;17906;47.684;10.806;2024-01-27T13:25:48;11.03;;;5.27;;
16737;SDS011;17906;47.684;10.806;2024-01-27T13:28:14;12.73;;;5.93;;
16737;SDS011;17906;47.684;10.806;2024-01-27T13:30:42;10.63;;;6.00;;
16737;SDS011;17906;47.684;10.806;2024-01-27T13:33:09;9.10;;;5.17;;
16737;SDS011;17906;47.684;10.806;2024-01-27T13:35:36;9.20;;;5.07;;
16737;SDS011;17906;47.684;10.806;2024-01-27T13:38:04;9.40;;;4.33;;
16737;SDS011;17906;47.684;10.806;2024-01-27T13:40:31;11.03;;;4.60;;
16737;SDS011;17906;47.684;10.806;2024-01-27T13:42:58;7.80;;;4.30;;
16737;SDS011;17906;47.684;10.806;2024-01-27T13:45:25;8.00;;;4.13;;
16737;SDS011;17906;47.684;10.806;2024-01-27T13:47:53;16.40;;;7.57;;
16737;SDS011;17906;47.684;10.806;2024-01-27T13:50:19;8.50;;;5.53;;
16737;SDS011;17906;47.684;10.806;2024-01-27T13:52:46;6.43;;;4.53;;
16737;SDS011;17906;47.684;10.806;2024-01-27T13:55:13;15.30;;;6.50;;
16737;SDS011;17906;47.684;10.806;2024-01-27T13:57:40;18.90;;;7.33;;
16737;SDS011;17906;47.684;10.806;2024-01-27T14:00:07;11.97;;;5.50;;
16737;SDS011;17906;47.684;10.806;2024-01-27T14:02:35;8.97;;;5.00;;
16737;SDS011;17906;47.684;10.806;2024-01-27T14:05:03;9.73;;;4.73;;
16737;SDS011;17906;47.684;10.806;2024-01-27T14:07:31;9.53;;;4.50;;
16737;SDS011;17906;47.684;10.806;2024-01-27T14:09:58;9.90;;;4.47;;
16737;SDS011;17906;47.684;10.806;2024-01-27T14:12:26;8.33;;;4.93;;
16737;SDS011;17906;47.684;10.806;2024-01-27T14:14:52;9.53;;;4.30;;
16737;SDS011;17906;47.684;10.806;2024-01-27T14:17:19;8.53;;;4.10;;
16737;SDS011;17906;47.684;10.806;2024-01-27T14:19:46;8.40;;;3.87;;
16737;SDS011;17906;47.684;10.806;2024-01-27T14:22:14;6.43;;;3.73;;
16737;SDS011;17906;47.684;10.806;2024-01-27T14:24:42;6.20;;;3.30;;
16737;SDS011;17906;47.684;10.806;2024-01-27T14:27:09;21.50;;;8.33;;
16737;SDS011;17906;47.684;10.806;2024-01-27T14:29:36;7.57;;;4.87;;